createdAt,value
2023-04-29T00:03:30.518Z,15.33
2023-04-29T00:07:48.352Z,15.44
2023-04-29T00:12:06.487Z,15.32
2023-04-29T00:16:23.965Z,15.43
2023-04-29T00:20:42.667Z,15.37
2023-04-29T00:24:59.672Z,15.43
2023-04-29T00:29:17.575Z,15.25
2023-04-29T00:33:35.133Z,15.48
2023-04-29T00:37:52.875Z,15.24
2023-04-29T00:42:10.882Z,15.40
2023-04-29T00:46:28.594Z,15.21
2023-04-29T00:50:46.218Z,15.29
2023-04-29T00:55:07.506Z,15.21
2023-04-29T00:59:32.254Z,15.36
2023-04-29T01:03:51.299Z,15.28
2023-04-29T01:08:42.177Z,15.32
2023-04-29T01:13:10.290Z,15.34
2023-04-29T01:17:30.259Z,15.28
2023-04-29T01:21:51.984Z,15.35
2023-04-29T01:26:10.292Z,15.22
2023-04-29T01:30:39.990Z,15.39
2023-04-29T01:35:17.173Z,15.27
2023-04-29T01:39:49.319Z,15.40
2023-04-29T01:44:13.201Z,15.20
2023-04-29T01:48:34.043Z,15.48
2023-04-29T01:52:51.687Z,15.36
2023-04-29T01:57:09.439Z,15.46
2023-04-29T02:01:27.184Z,15.36
2023-04-29T02:05:44.687Z,15.35
2023-04-29T02:10:02.530Z,15.34
2023-04-29T02:14:20.040Z,15.36
2023-04-29T02:18:38.114Z,15.42
2023-04-29T02:22:55.631Z,15.41
2023-04-29T02:27:13.338Z,15.52
2023-04-29T02:31:30.980Z,15.34
2023-04-29T02:35:48.741Z,15.44
2023-04-29T02:40:07.495Z,15.46
2023-04-29T02:44:25.329Z,15.50
2023-04-29T02:48:42.906Z,15.34
2023-04-29T02:53:00.691Z,15.46
2023-04-29T02:57:18.690Z,15.34
2023-04-29T03:01:36.374Z,15.54
2023-04-29T03:05:54.022Z,15.44
2023-04-29T03:10:12.799Z,15.53
2023-04-29T03:14:30.390Z,15.41
2023-04-29T03:18:48.271Z,15.44
2023-04-29T03:23:06.067Z,15.34
2023-04-29T03:27:24.155Z,15.48
2023-04-29T03:31:42.040Z,15.49
2023-04-29T03:35:59.788Z,15.49
2023-04-29T03:40:17.572Z,15.47
2023-04-29T03:44:35.150Z,15.46
2023-04-29T03:48:52.983Z,15.50
2023-04-29T03:53:10.635Z,15.50
2023-04-29T03:57:28.351Z,15.55
2023-04-29T04:01:46.041Z,15.52
2023-04-29T04:06:03.671Z,15.63
2023-04-29T04:10:21.798Z,15.43
2023-04-29T04:14:39.474Z,15.66
2023-04-29T04:18:57.126Z,15.57
2023-04-29T04:23:14.935Z,15.65
2023-04-29T04:27:32.802Z,15.68
2023-04-29T04:31:50.416Z,15.74
2023-04-29T04:36:08.681Z,15.67
2023-04-29T04:40:26.214Z,15.77
2023-04-29T04:44:43.969Z,15.79
2023-04-29T04:49:01.538Z,15.81
2023-04-29T04:53:19.272Z,15.88
2023-04-29T04:57:36.775Z,15.90
2023-04-29T05:01:54.519Z,15.95
2023-04-29T05:06:12.111Z,15.94
2023-04-29T05:10:30.029Z,15.97
2023-04-29T05:14:47.563Z,16.00
2023-04-29T05:19:05.371Z,16.01
2023-04-29T05:23:23.395Z,16.06
2023-04-29T05:27:41.089Z,16.13
2023-04-29T05:31:59.465Z,16.17
2023-04-29T05:36:17.121Z,16.21
2023-04-29T05:40:34.712Z,16.25
2023-04-29T05:44:52.425Z,16.24
2023-04-29T05:49:09.935Z,16.27
2023-04-29T05:53:27.764Z,16.22
2023-04-29T05:57:45.297Z,16.31
2023-04-29T06:02:03.439Z,16.29
2023-04-29T06:06:21.004Z,16.41
2023-04-29T06:10:39.064Z,16.42
2023-04-29T06:14:56.749Z,16.48
2023-04-29T06:19:14.715Z,16.38
2023-04-29T06:23:33.028Z,16.42
2023-04-29T06:27:50.851Z,16.33
2023-04-29T06:32:08.984Z,16.41
2023-04-29T06:36:29.029Z,16.32
2023-04-29T06:40:46.687Z,16.50
2023-04-29T06:45:05.180Z,16.55
2023-04-29T06:49:22.915Z,16.56
2023-04-29T06:53:40.663Z,16.49
2023-04-29T06:57:58.218Z,16.56
2023-04-29T07:02:16.374Z,16.59
2023-04-29T07:06:33.882Z,16.51
2023-04-29T07:10:58.947Z,16.43
2023-04-29T07:15:16.612Z,16.48
2023-04-29T07:19:34.256Z,16.30
2023-04-29T07:23:51.865Z,16.42
2023-04-29T07:28:09.790Z,16.30
2023-04-29T07:32:28.017Z,16.49
2023-04-29T07:36:45.693Z,16.39
2023-04-29T07:41:04.769Z,16.43
2023-04-29T07:45:22.437Z,16.45
2023-04-29T07:49:40.071Z,16.52
2023-04-29T07:54:01.021Z,16.45
2023-04-29T07:58:18.558Z,16.39
2023-04-29T08:02:36.741Z,16.43
2023-04-29T08:06:54.526Z,16.30
2023-04-29T08:11:20.180Z,16.41
2023-04-29T08:15:37.742Z,16.28
2023-04-29T08:19:55.504Z,16.39
2023-04-29T08:24:12.603Z,16.31
2023-04-29T08:28:31.447Z,16.44
2023-04-29T08:32:49.387Z,16.39
2023-04-29T08:37:07.005Z,16.46
2023-04-29T08:41:25.621Z,16.39
2023-04-29T08:45:44.391Z,16.49
2023-04-29T08:50:04.849Z,16.39
2023-04-29T08:54:22.582Z,16.48
2023-04-29T08:58:42.558Z,16.58
2023-04-29T09:03:04.545Z,16.74
2023-04-29T09:07:23.900Z,16.71
2023-04-29T09:11:42.962Z,16.79
2023-04-29T09:16:00.574Z,17.05
2023-04-29T09:20:21.263Z,16.94
2023-04-29T09:24:40.156Z,16.98
2023-04-29T09:29:14.327Z,16.68
2023-04-29T09:33:32.653Z,16.82
2023-04-29T09:37:50.406Z,16.55
2023-04-29T09:42:09.903Z,16.44
2023-04-29T09:46:27.910Z,16.54
2023-04-29T09:51:04.241Z,16.60
2023-04-29T09:55:22.182Z,16.90
2023-04-29T09:59:41.821Z,17.08
2023-04-29T10:04:00.248Z,17.76
2023-04-29T10:08:18.278Z,17.96
2023-04-29T10:12:36.702Z,18.18
2023-04-29T10:17:06.309Z,17.86
2023-04-29T10:21:30.325Z,17.52
2023-04-29T10:25:49.259Z,17.92
2023-04-29T10:30:09.943Z,17.75
2023-04-29T10:34:28.854Z,17.78
2023-04-29T10:38:54.352Z,18.30
2023-04-29T10:43:12.086Z,17.74
2023-04-29T10:47:29.311Z,17.52
2023-04-29T10:51:46.932Z,17.40
2023-04-29T10:56:13.425Z,17.42
2023-04-29T11:00:34.057Z,17.50
2023-04-29T11:05:11.527Z,17.18
2023-04-29T11:09:33.386Z,17.77
2023-04-29T11:13:51.129Z,17.47
2023-04-29T11:18:11.999Z,16.98
2023-04-29T11:22:34.061Z,17.08
2023-04-29T11:26:52.897Z,16.92
2023-04-29T11:31:10.518Z,16.82
2023-04-29T11:35:28.371Z,16.89
2023-04-29T11:39:45.973Z,16.80
2023-04-29T11:44:05.264Z,16.92
2023-04-29T11:48:27.085Z,16.67
2023-04-29T11:52:47.859Z,16.64
2023-04-29T11:57:05.590Z,16.65
2023-04-29T12:01:23.482Z,16.49
2023-04-29T12:05:46.607Z,16.71
2023-04-29T12:10:11.270Z,16.54
2023-04-29T12:14:29.696Z,16.58
2023-04-29T12:18:47.368Z,16.78
2023-04-29T12:23:17.042Z,16.65
2023-04-29T12:27:36.445Z,16.72
2023-04-29T12:31:54.772Z,16.55
2023-04-29T12:36:20.929Z,16.50
2023-04-29T12:40:38.634Z,16.67
2023-04-29T12:44:56.437Z,16.58
2023-04-29T12:49:14.984Z,16.90
2023-04-29T12:53:33.374Z,16.79
2023-04-29T12:57:51.787Z,16.76
2023-04-29T13:02:09.473Z,16.75
2023-04-29T13:06:27.467Z,16.71
2023-04-29T13:10:45.050Z,16.83
2023-04-29T13:15:02.962Z,16.63
2023-04-29T13:19:38.200Z,16.88
2023-04-29T13:23:58.734Z,16.83
2023-04-29T13:28:16.684Z,16.59
2023-04-29T13:32:43.803Z,16.70
2023-04-29T13:37:06.877Z,16.68
2023-04-29T13:41:25.999Z,16.86
2023-04-29T13:45:45.560Z,17.00
2023-04-29T13:54:57.140Z,17.23
2023-04-29T13:59:37.991Z,17.08
2023-04-29T14:03:42.593Z,17.38
2023-04-29T14:08:00.670Z,17.31
2023-04-29T14:12:19.887Z,16.86
2023-04-29T14:16:37.635Z,16.94
2023-04-29T14:20:55.431Z,16.87
2023-04-29T14:25:12.993Z,16.78
2023-04-29T14:29:30.817Z,16.83
2023-04-29T14:33:50.701Z,16.75
2023-04-29T14:38:08.992Z,16.84
2023-04-29T14:42:26.624Z,16.63
2023-04-29T14:46:44.214Z,16.55
2023-04-29T14:51:02.281Z,16.67
2023-04-29T14:55:19.682Z,16.51
2023-04-29T14:59:37.489Z,16.46
2023-04-29T15:03:55.134Z,16.50
2023-04-29T15:08:13.426Z,16.34
2023-04-29T15:12:30.985Z,16.53
2023-04-29T15:16:49.410Z,16.43
2023-04-29T15:21:07.827Z,16.48
2023-04-29T15:25:27.452Z,16.76
2023-04-29T15:29:45.262Z,16.74
2023-04-29T15:34:03.171Z,16.80
2023-04-29T15:38:21.039Z,16.80
2023-04-29T15:42:38.688Z,16.81
2023-04-29T15:46:56.221Z,16.70
2023-04-29T15:51:15.390Z,16.63
2023-04-29T15:55:35.293Z,16.86
2023-04-29T15:59:53.535Z,16.86
2023-04-29T16:04:11.536Z,16.79
2023-04-29T16:08:29.330Z,16.79
2023-04-29T16:12:46.917Z,16.52
2023-04-29T16:17:06.087Z,16.44
2023-04-29T16:21:24.126Z,16.54
2023-04-29T16:25:42.299Z,16.33
2023-04-29T16:30:00.571Z,16.53
2023-04-29T16:34:18.457Z,16.48
2023-04-29T16:38:36.305Z,16.37
2023-04-29T16:42:54.525Z,16.46
2023-04-29T16:47:12.385Z,16.33
2023-04-29T16:51:29.949Z,16.51
2023-04-29T16:55:48.334Z,16.52
2023-04-29T17:00:10.561Z,16.42
2023-04-29T17:04:29.467Z,16.47
2023-04-29T17:08:50.024Z,16.32
2023-04-29T17:13:09.063Z,16.47
2023-04-29T17:17:27.173Z,16.50
2023-04-29T17:21:44.792Z,16.37
2023-04-29T17:26:02.671Z,16.43
2023-04-29T17:30:20.381Z,16.50
2023-04-29T17:34:38.435Z,16.40
2023-04-29T17:38:55.971Z,16.46
2023-04-29T17:43:13.649Z,16.41
2023-04-29T17:47:31.181Z,16.46
2023-04-29T17:51:49.310Z,16.39
2023-04-29T17:56:06.503Z,16.39
2023-04-29T18:00:24.349Z,16.46
2023-04-29T18:04:42.162Z,16.39
2023-04-29T18:09:01.924Z,16.45
2023-04-29T18:13:19.607Z,16.39
2023-04-29T18:17:37.331Z,16.42
2023-04-29T18:21:59.595Z,16.46
2023-04-29T18:26:18.173Z,16.39
2023-04-29T18:30:36.093Z,16.43
2023-04-29T18:34:53.617Z,16.35
2023-04-29T18:39:11.125Z,16.42
2023-04-29T18:43:28.751Z,16.40
2023-04-29T18:47:46.520Z,16.40
2023-04-29T18:52:04.975Z,16.41
2023-04-29T18:56:22.780Z,16.36
2023-04-29T19:00:41.023Z,16.40
2023-04-29T19:04:58.802Z,16.32
2023-04-29T19:09:16.628Z,16.42
2023-04-29T19:13:34.276Z,16.39
2023-04-29T19:17:52.191Z,16.29
2023-04-29T19:22:10.018Z,16.40
2023-04-29T19:26:27.973Z,16.36
2023-04-29T19:30:45.650Z,16.38
2023-04-29T19:35:04.428Z,16.37
2023-04-29T19:39:22.165Z,16.31
2023-04-29T19:43:39.978Z,16.40
2023-04-29T19:47:59.733Z,16.38
2023-04-29T19:52:18.163Z,16.38
2023-04-29T19:56:35.331Z,16.36
2023-04-29T20:00:53.368Z,16.36
2023-04-29T20:05:11.786Z,16.39
2023-04-29T20:09:29.501Z,16.29
2023-04-29T20:13:47.969Z,16.39
2023-04-29T20:18:05.843Z,16.34
2023-04-29T20:22:23.861Z,16.35
2023-04-29T20:26:41.428Z,16.39
2023-04-29T20:30:58.637Z,16.42
2023-04-29T20:35:16.697Z,16.40
2023-04-29T20:39:34.384Z,16.37
2023-04-29T20:43:53.169Z,16.39
2023-04-29T20:48:10.786Z,16.38
2023-04-29T20:52:28.758Z,16.31
2023-04-29T20:56:46.266Z,16.37
2023-04-29T21:01:03.982Z,16.33
2023-04-29T21:05:21.545Z,16.39
2023-04-29T21:09:39.587Z,16.35
2023-04-29T21:13:57.155Z,16.36
2023-04-29T21:18:15.384Z,16.33
2023-04-29T21:22:32.951Z,16.31
2023-04-29T21:26:50.811Z,16.33
2023-04-29T21:31:09.864Z,16.32
2023-04-29T21:35:27.945Z,16.32
2023-04-29T21:39:45.456Z,16.31
2023-04-29T21:44:04.115Z,16.33
2023-04-29T21:48:22.385Z,16.33
2023-04-29T21:52:39.935Z,16.28
2023-04-29T21:56:58.126Z,16.30
2023-04-29T22:01:29.893Z,16.27
2023-04-29T22:05:47.410Z,16.31
2023-04-29T22:10:06.618Z,16.30
2023-04-29T22:14:24.342Z,16.31
2023-04-29T22:18:42.139Z,16.31
2023-04-29T22:22:59.886Z,16.27
2023-04-29T22:27:17.534Z,16.31
2023-04-29T22:31:35.142Z,16.27
2023-04-29T22:35:52.946Z,16.29
2023-04-29T22:40:12.094Z,16.28
2023-04-29T22:44:30.145Z,16.28
2023-04-29T22:48:47.651Z,16.30
2023-04-29T22:53:05.326Z,16.28
2023-04-29T22:57:22.894Z,16.30
2023-04-29T23:01:40.603Z,16.29
2023-04-29T23:05:59.803Z,16.29
2023-04-29T23:10:17.366Z,16.29
2023-04-29T23:14:36.019Z,16.30
2023-04-29T23:18:53.928Z,16.32
2023-04-29T23:23:11.617Z,16.29
2023-04-29T23:27:29.155Z,16.30
2023-04-29T23:31:47.059Z,16.27
2023-04-29T23:36:05.074Z,16.29
2023-04-29T23:40:22.892Z,16.29
2023-04-29T23:44:40.498Z,16.26
2023-04-29T23:48:58.238Z,16.31
2023-04-29T23:53:16.024Z,16.27
2023-04-29T23:57:33.735Z,16.32
